sensor_id;sensor_type;location;lat;lon;timestamp;temperature;humidity
429;DHT22;201;48.758;9.290;2023-09-08T00:01:59;16.90;1.00
429;DHT22;201;48.758;9.290;2023-09-08T00:04:24;16.80;1.00
429;DHT22;201;48.758;9.290;2023-09-08T00:06:50;16.80;1.00
429;DHT22;201;48.758;9.290;2023-09-08T00:09:16;16.70;1.00
429;DHT22;201;48.758;9.290;2023-09-08T00:11:41;16.60;1.00
429;DHT22;201;48.758;9.290;2023-09-08T00:14:07;16.50;1.00
429;DHT22;201;48.758;9.290;2023-09-08T00:16:32;16.50;1.00
429;DHT22;201;48.758;9.290;2023-09-08T00:18:58;16.40;1.00
429;DHT22;201;48.758;9.290;2023-09-08T00:21:25;16.40;1.00
429;DHT22;201;48.758;9.290;2023-09-08T00:23:51;16.40;1.10
429;DHT22;201;48.758;9.290;2023-09-08T00:26:16;16.30;1.40
429;DHT22;201;48.758;9.290;2023-09-08T00:28:42;16.30;1.80
429;DHT22;201;48.758;9.290;2023-09-08T00:31:07;16.20;2.10
429;DHT22;201;48.758;9.290;2023-09-08T00:33:33;16.20;2.10
429;DHT22;201;48.758;9.290;2023-09-08T00:35:58;16.20;1.90
429;DHT22;201;48.758;9.290;2023-09-08T00:38:24;16.30;1.60
429;DHT22;201;48.758;9.290;2023-09-08T00:40:50;16.30;1.00
429;DHT22;201;48.758;9.290;2023-09-08T00:43:17;16.30;1.00
429;DHT22;201;48.758;9.290;2023-09-08T00:45:43;16.30;1.00
429;DHT22;201;48.758;9.290;2023-09-08T00:48:09;16.30;1.00
429;DHT22;201;48.758;9.290;2023-09-08T00:50:38;16.30;1.00
429;DHT22;201;48.758;9.290;2023-09-08T00:53:05;16.30;1.00
429;DHT22;201;48.758;9.290;2023-09-08T00:55:31;16.30;1.00
429;DHT22;201;48.758;9.290;2023-09-08T00:57:57;16.20;1.00
429;DHT22;201;48.758;9.290;2023-09-08T01:00:26;16.20;1.00
429;DHT22;201;48.758;9.290;2023-09-08T01:02:52;16.20;1.00
429;DHT22;201;48.758;9.290;2023-09-08T01:05:18;16.20;1.00
429;DHT22;201;48.758;9.290;2023-09-08T01:07:44;16.20;1.00
429;DHT22;201;48.758;9.290;2023-09-08T01:10:12;16.10;1.00
429;DHT22;201;48.758;9.290;2023-09-08T01:12:38;16.10;1.00
429;DHT22;201;48.758;9.290;2023-09-08T01:15:04;16.00;1.00
429;DHT22;201;48.758;9.290;2023-09-08T01:17:30;16.00;1.00
429;DHT22;201;48.758;9.290;2023-09-08T01:19:57;16.00;1.00
429;DHT22;201;48.758;9.290;2023-09-08T01:22:51;16.00;1.00
429;DHT22;201;48.758;9.290;2023-09-08T01:25:22;15.90;1.00
429;DHT22;201;48.758;9.290;2023-09-08T01:27:53;15.90;1.00
429;DHT22;201;48.758;9.290;2023-09-08T01:30:23;15.90;1.00
429;DHT22;201;48.758;9.290;2023-09-08T01:32:50;15.90;1.00
429;DHT22;201;48.758;9.290;2023-09-08T01:35:16;15.90;1.00
429;DHT22;201;48.758;9.290;2023-09-08T01:37:46;15.80;1.00
429;DHT22;201;48.758;9.290;2023-09-08T01:40:12;15.80;1.00
429;DHT22;201;48.758;9.290;2023-09-08T01:42:38;15.80;1.00
429;DHT22;201;48.758;9.290;2023-09-08T01:45:04;15.70;1.00
429;DHT22;201;48.758;9.290;2023-09-08T01:47:30;15.70;1.70
429;DHT22;201;48.758;9.290;2023-09-08T01:49:56;15.70;1.30
429;DHT22;201;48.758;9.290;2023-09-08T01:52:22;15.60;1.40
429;DHT22;201;48.758;9.290;2023-09-08T01:54:47;15.60;1.30
429;DHT22;201;48.758;9.290;2023-09-08T01:57:13;15.60;1.40
429;DHT22;201;48.758;9.290;2023-09-08T01:59:38;15.60;1.30
429;DHT22;201;48.758;9.290;2023-09-08T02:02:04;15.60;1.40
429;DHT22;201;48.758;9.290;2023-09-08T02:04:29;15.60;1.40
429;DHT22;201;48.758;9.290;2023-09-08T02:06:55;15.50;1.50
429;DHT22;201;48.758;9.290;2023-09-08T02:09:21;15.50;1.80
429;DHT22;201;48.758;9.290;2023-09-08T02:11:47;15.50;2.00
429;DHT22;201;48.758;9.290;2023-09-08T02:14:12;15.50;2.10
429;DHT22;201;48.758;9.290;2023-09-08T02:16:38;15.40;2.20
429;DHT22;201;48.758;9.290;2023-09-08T02:19:05;15.40;2.30
429;DHT22;201;48.758;9.290;2023-09-08T02:21:30;15.40;2.40
429;DHT22;201;48.758;9.290;2023-09-08T02:23:56;15.40;2.60
429;DHT22;201;48.758;9.290;2023-09-08T02:26:21;15.40;2.90
429;DHT22;201;48.758;9.290;2023-09-08T02:28:47;15.30;2.80
429;DHT22;201;48.758;9.290;2023-09-08T02:31:12;15.30;3.00
429;DHT22;201;48.758;9.290;2023-09-08T02:33:38;15.30;3.10
429;DHT22;201;48.758;9.290;2023-09-08T02:36:06;15.30;3.20
429;DHT22;201;48.758;9.290;2023-09-08T02:38:32;15.30;3.30
429;DHT22;201;48.758;9.290;2023-09-08T02:40:58;15.30;3.40
429;DHT22;201;48.758;9.290;2023-09-08T02:43:23;15.20;3.60
429;DHT22;201;48.758;9.290;2023-09-08T02:45:49;15.20;3.60
429;DHT22;201;48.758;9.290;2023-09-08T02:48:15;15.10;3.70
429;DHT22;201;48.758;9.290;2023-09-08T02:50:42;15.10;3.90
429;DHT22;201;48.758;9.290;2023-09-08T02:53:07;15.10;4.50
429;DHT22;201;48.758;9.290;2023-09-08T02:55:33;15.10;4.50
429;DHT22;201;48.758;9.290;2023-09-08T02:57:58;15.00;4.40
429;DHT22;201;48.758;9.290;2023-09-08T03:00:24;15.00;4.40
429;DHT22;201;48.758;9.290;2023-09-08T03:02:50;15.00;4.40
429;DHT22;201;48.758;9.290;2023-09-08T03:05:15;14.90;4.30
429;DHT22;201;48.758;9.290;2023-09-08T03:07:41;14.90;4.30
429;DHT22;201;48.758;9.290;2023-09-08T03:10:06;14.90;4.30
429;DHT22;201;48.758;9.290;2023-09-08T03:12:32;14.90;4.50
429;DHT22;201;48.758;9.290;2023-09-08T03:14:58;14.80;4.80
429;DHT22;201;48.758;9.290;2023-09-08T03:17:23;14.70;5.10
429;DHT22;201;48.758;9.290;2023-09-08T03:19:49;14.70;5.20
429;DHT22;201;48.758;9.290;2023-09-08T03:22:14;14.70;5.30
429;DHT22;201;48.758;9.290;2023-09-08T03:24:39;14.60;5.50
429;DHT22;201;48.758;9.290;2023-09-08T03:27:05;14.60;5.90
429;DHT22;201;48.758;9.290;2023-09-08T03:29:30;14.60;6.00
429;DHT22;201;48.758;9.290;2023-09-08T03:31:56;14.60;6.00
429;DHT22;201;48.758;9.290;2023-09-08T03:34:21;14.60;6.20
429;DHT22;201;48.758;9.290;2023-09-08T03:36:48;14.60;6.30
429;DHT22;201;48.758;9.290;2023-09-08T03:39:14;14.50;6.30
429;DHT22;201;48.758;9.290;2023-09-08T03:41:39;14.50;6.50
429;DHT22;201;48.758;9.290;2023-09-08T03:44:05;14.50;6.60
429;DHT22;201;48.758;9.290;2023-09-08T03:46:30;14.40;6.70
429;DHT22;201;48.758;9.290;2023-09-08T03:48:56;14.40;6.90
429;DHT22;201;48.758;9.290;2023-09-08T03:51:28;14.30;7.00
429;DHT22;201;48.758;9.290;2023-09-08T03:53:54;14.40;7.20
429;DHT22;201;48.758;9.290;2023-09-08T03:56:20;14.30;7.40
429;DHT22;201;48.758;9.290;2023-09-08T03:58:48;14.30;7.60
429;DHT22;201;48.758;9.290;2023-09-08T04:01:14;14.30;7.80
429;DHT22;201;48.758;9.290;2023-09-08T04:03:40;14.20;8.00
429;DHT22;201;48.758;9.290;2023-09-08T04:06:05;14.20;8.20
429;DHT22;201;48.758;9.290;2023-09-08T04:08:30;14.20;8.60
429;DHT22;201;48.758;9.290;2023-09-08T04:10:56;14.10;8.90
429;DHT22;201;48.758;9.290;2023-09-08T04:13:21;14.10;9.10
429;DHT22;201;48.758;9.290;2023-09-08T04:15:47;14.10;9.30
429;DHT22;201;48.758;9.290;2023-09-08T04:18:12;14.10;9.40
429;DHT22;201;48.758;9.290;2023-09-08T04:20:38;14.10;9.30
429;DHT22;201;48.758;9.290;2023-09-08T04:23:04;14.00;9.30
429;DHT22;201;48.758;9.290;2023-09-08T04:25:30;14.00;9.20
429;DHT22;201;48.758;9.290;2023-09-08T04:27:55;14.00;9.20
429;DHT22;201;48.758;9.290;2023-09-08T04:30:20;14.10;9.20
429;DHT22;201;48.758;9.290;2023-09-08T04:32:46;14.00;9.00
429;DHT22;201;48.758;9.290;2023-09-08T04:35:12;14.00;8.90
429;DHT22;201;48.758;9.290;2023-09-08T04:37:38;14.00;8.90
429;DHT22;201;48.758;9.290;2023-09-08T04:40:05;14.00;8.90
429;DHT22;201;48.758;9.290;2023-09-08T04:42:30;14.00;8.90
429;DHT22;201;48.758;9.290;2023-09-08T04:44:56;14.00;9.00
429;DHT22;201;48.758;9.290;2023-09-08T04:47:22;14.00;8.90
429;DHT22;201;48.758;9.290;2023-09-08T04:49:47;14.00;8.80
429;DHT22;201;48.758;9.290;2023-09-08T04:52:13;14.00;8.60
429;DHT22;201;48.758;9.290;2023-09-08T04:54:40;14.00;8.50
429;DHT22;201;48.758;9.290;2023-09-08T04:57:05;14.00;8.50
429;DHT22;201;48.758;9.290;2023-09-08T04:59:31;14.00;8.30
429;DHT22;201;48.758;9.290;2023-09-08T05:01:56;14.00;8.40
429;DHT22;201;48.758;9.290;2023-09-08T05:04:22;14.00;8.30
429;DHT22;201;48.758;9.290;2023-09-08T05:06:47;14.10;8.30
429;DHT22;201;48.758;9.290;2023-09-08T05:09:13;14.10;8.20
429;DHT22;201;48.758;9.290;2023-09-08T05:11:39;14.10;8.20
429;DHT22;201;48.758;9.290;2023-09-08T05:14:04;14.20;8.30
429;DHT22;201;48.758;9.290;2023-09-08T05:16:30;14.20;8.10
429;DHT22;201;48.758;9.290;2023-09-08T05:19:03;14.30;7.90
429;DHT22;201;48.758;9.290;2023-09-08T05:21:30;14.40;7.60
429;DHT22;201;48.758;9.290;2023-09-08T05:23:56;14.50;7.30
429;DHT22;201;48.758;9.290;2023-09-08T05:26:21;14.60;6.90
429;DHT22;201;48.758;9.290;2023-09-08T05:28:46;14.70;6.60
429;DHT22;201;48.758;9.290;2023-09-08T05:31:12;14.80;5.80
429;DHT22;201;48.758;9.290;2023-09-08T05:33:37;15.00;4.80
429;DHT22;201;48.758;9.290;2023-09-08T05:36:03;15.30;4.60
429;DHT22;201;48.758;9.290;2023-09-08T05:38:29;15.60;3.20
429;DHT22;201;48.758;9.290;2023-09-08T05:40:54;15.90;1.80
429;DHT22;201;48.758;9.290;2023-09-08T05:43:20;16.20;1.00
429;DHT22;201;48.758;9.290;2023-09-08T05:45:46;16.70;1.00
429;DHT22;201;48.758;9.290;2023-09-08T05:48:11;17.10;1.00
429;DHT22;201;48.758;9.290;2023-09-08T05:50:37;17.60;1.00
429;DHT22;201;48.758;9.290;2023-09-08T05:53:02;17.80;1.00
429;DHT22;201;48.758;9.290;2023-09-08T05:55:28;17.90;1.00
429;DHT22;201;48.758;9.290;2023-09-08T05:57:53;18.00;1.00
429;DHT22;201;48.758;9.290;2023-09-08T06:00:19;18.20;1.00
429;DHT22;201;48.758;9.290;2023-09-08T06:02:45;18.60;1.00
429;DHT22;201;48.758;9.290;2023-09-08T06:05:10;19.30;1.00
429;DHT22;201;48.758;9.290;2023-09-08T06:07:36;20.00;1.00
429;DHT22;201;48.758;9.290;2023-09-08T06:10:01;20.80;1.00
429;DHT22;201;48.758;9.290;2023-09-08T06:12:27;21.30;1.00
429;DHT22;201;48.758;9.290;2023-09-08T06:14:52;21.40;1.00
429;DHT22;201;48.758;9.290;2023-09-08T06:17:18;21.80;1.00
429;DHT22;201;48.758;9.290;2023-09-08T06:19:43;22.40;1.00
429;DHT22;201;48.758;9.290;2023-09-08T06:22:09;22.60;1.00
429;DHT22;201;48.758;9.290;2023-09-08T06:24:34;23.10;1.00
429;DHT22;201;48.758;9.290;2023-09-08T06:27:01;23.50;1.00
429;DHT22;201;48.758;9.290;2023-09-08T06:29:26;23.70;1.00
429;DHT22;201;48.758;9.290;2023-09-08T06:31:52;24.40;1.00
429;DHT22;201;48.758;9.290;2023-09-08T06:34:17;25.60;1.00
429;DHT22;201;48.758;9.290;2023-09-08T06:36:46;26.70;1.00
429;DHT22;201;48.758;9.290;2023-09-08T06:39:12;27.50;1.00
429;DHT22;201;48.758;9.290;2023-09-08T06:41:38;28.20;1.00
429;DHT22;201;48.758;9.290;2023-09-08T06:44:03;29.10;1.00
429;DHT22;201;48.758;9.290;2023-09-08T06:46:29;29.80;1.00
429;DHT22;201;48.758;9.290;2023-09-08T06:48:55;30.40;1.00
429;DHT22;201;48.758;9.290;2023-09-08T06:51:21;31.20;1.00
429;DHT22;201;48.758;9.290;2023-09-08T06:53:54;31.60;1.00
429;DHT22;201;48.758;9.290;2023-09-08T06:56:21;32.20;1.00
429;DHT22;201;48.758;9.290;2023-09-08T06:58:47;32.60;1.00
429;DHT22;201;48.758;9.290;2023-09-08T07:01:12;33.10;1.00
429;DHT22;201;48.758;9.290;2023-09-08T07:03:38;32.60;1.00
429;DHT22;201;48.758;9.290;2023-09-08T07:06:03;32.80;1.00
429;DHT22;201;48.758;9.290;2023-09-08T07:08:29;32.40;1.00
429;DHT22;201;48.758;9.290;2023-09-08T07:10:55;31.90;1.00
429;DHT22;201;48.758;9.290;2023-09-08T07:13:20;32.30;1.00
429;DHT22;201;48.758;9.290;2023-09-08T07:15:46;32.60;1.00
429;DHT22;201;48.758;9.290;2023-09-08T07:18:11;32.90;1.00
429;DHT22;201;48.758;9.290;2023-09-08T07:20:37;33.30;1.00
429;DHT22;201;48.758;9.290;2023-09-08T07:23:02;33.40;1.00
429;DHT22;201;48.758;9.290;2023-09-08T07:25:28;32.90;1.00
429;DHT22;201;48.758;9.290;2023-09-08T07:27:54;33.10;1.00
429;DHT22;201;48.758;9.290;2023-09-08T07:30:20;33.60;1.00
429;DHT22;201;48.758;9.290;2023-09-08T07:32:46;34.10;1.00
429;DHT22;201;48.758;9.290;2023-09-08T07:35:11;34.10;1.00
429;DHT22;201;48.758;9.290;2023-09-08T07:37:42;34.80;1.00
429;DHT22;201;48.758;9.290;2023-09-08T07:40:09;35.40;1.00
429;DHT22;201;48.758;9.290;2023-09-08T07:42:35;34.80;1.00
429;DHT22;201;48.758;9.290;2023-09-08T07:45:00;34.40;1.00
429;DHT22;201;48.758;9.290;2023-09-08T07:47:26;34.40;1.00
429;DHT22;201;48.758;9.290;2023-09-08T07:49:51;35.40;1.00
429;DHT22;201;48.758;9.290;2023-09-08T07:52:17;35.70;1.00
429;DHT22;201;48.758;9.290;2023-09-08T07:54:42;37.10;1.00
429;DHT22;201;48.758;9.290;2023-09-08T07:57:08;37.60;1.00
429;DHT22;201;48.758;9.290;2023-09-08T07:59:34;38.40;1.00
429;DHT22;201;48.758;9.290;2023-09-08T08:02:00;38.40;1.00
429;DHT22;201;48.758;9.290;2023-09-08T08:04:25;38.70;1.00
429;DHT22;201;48.758;9.290;2023-09-08T08:06:51;39.20;1.00
429;DHT22;201;48.758;9.290;2023-09-08T08:09:16;40.20;1.00
429;DHT22;201;48.758;9.290;2023-09-08T08:11:42;41.20;1.00
429;DHT22;201;48.758;9.290;2023-09-08T08:14:07;42.00;1.00
429;DHT22;201;48.758;9.290;2023-09-08T08:16:33;42.80;1.00
429;DHT22;201;48.758;9.290;2023-09-08T08:18:58;43.70;1.00
429;DHT22;201;48.758;9.290;2023-09-08T08:21:24;43.80;1.00
429;DHT22;201;48.758;9.290;2023-09-08T08:23:50;44.10;1.00
429;DHT22;201;48.758;9.290;2023-09-08T08:26:16;44.40;1.00
429;DHT22;201;48.758;9.290;2023-09-08T08:28:43;44.10;1.00
429;DHT22;201;48.758;9.290;2023-09-08T08:31:08;44.20;1.00
429;DHT22;201;48.758;9.290;2023-09-08T08:33:34;44.50;1.00
429;DHT22;201;48.758;9.290;2023-09-08T08:35:59;44.40;1.00
429;DHT22;201;48.758;9.290;2023-09-08T08:38:25;44.60;1.00
429;DHT22;201;48.758;9.290;2023-09-08T08:40:51;44.90;1.00
429;DHT22;201;48.758;9.290;2023-09-08T08:43:16;45.20;1.00
429;DHT22;201;48.758;9.290;2023-09-08T08:45:43;45.70;1.00
429;DHT22;201;48.758;9.290;2023-09-08T08:48:09;46.20;1.00
429;DHT22;201;48.758;9.290;2023-09-08T08:50:36;46.70;1.00
429;DHT22;201;48.758;9.290;2023-09-08T08:53:02;47.10;1.00
429;DHT22;201;48.758;9.290;2023-09-08T08:55:30;47.80;1.00
429;DHT22;201;48.758;9.290;2023-09-08T08:58:02;47.70;1.00
429;DHT22;201;48.758;9.290;2023-09-08T09:00:28;47.50;1.00
429;DHT22;201;48.758;9.290;2023-09-08T09:02:54;47.70;1.00
429;DHT22;201;48.758;9.290;2023-09-08T09:05:21;48.20;1.00
429;DHT22;201;48.758;9.290;2023-09-08T09:07:47;48.70;1.00
429;DHT22;201;48.758;9.290;2023-09-08T09:10:14;48.90;1.00
429;DHT22;201;48.758;9.290;2023-09-08T09:12:39;48.70;1.00
429;DHT22;201;48.758;9.290;2023-09-08T09:15:05;48.80;1.00
429;DHT22;201;48.758;9.290;2023-09-08T09:17:35;49.20;1.00
429;DHT22;201;48.758;9.290;2023-09-08T09:20:17;49.60;1.00
429;DHT22;201;48.758;9.290;2023-09-08T09:22:48;50.30;1.00
429;DHT22;201;48.758;9.290;2023-09-08T09:25:27;51.10;1.00
429;DHT22;201;48.758;9.290;2023-09-08T09:27:55;50.90;1.00
429;DHT22;201;48.758;9.290;2023-09-08T09:30:21;50.60;1.00
429;DHT22;201;48.758;9.290;2023-09-08T09:32:47;50.90;1.00
429;DHT22;201;48.758;9.290;2023-09-08T09:35:15;51.00;1.00
429;DHT22;201;48.758;9.290;2023-09-08T09:37:41;50.70;1.00
429;DHT22;201;48.758;9.290;2023-09-08T09:40:07;51.10;1.00
429;DHT22;201;48.758;9.290;2023-09-08T09:42:38;51.30;1.00
429;DHT22;201;48.758;9.290;2023-09-08T09:45:05;51.30;1.00
429;DHT22;201;48.758;9.290;2023-09-08T09:47:30;51.90;1.00
429;DHT22;201;48.758;9.290;2023-09-08T09:49:56;52.20;1.00
429;DHT22;201;48.758;9.290;2023-09-08T09:52:24;51.90;1.00
429;DHT22;201;48.758;9.290;2023-09-08T09:54:53;52.00;1.00
429;DHT22;201;48.758;9.290;2023-09-08T09:57:21;52.10;1.00
429;DHT22;201;48.758;9.290;2023-09-08T09:59:47;52.20;1.00
429;DHT22;201;48.758;9.290;2023-09-08T10:02:17;52.30;1.00
429;DHT22;201;48.758;9.290;2023-09-08T10:04:48;52.80;1.00
429;DHT22;201;48.758;9.290;2023-09-08T10:07:15;52.40;1.00
429;DHT22;201;48.758;9.290;2023-09-08T10:09:41;52.70;1.00
429;DHT22;201;48.758;9.290;2023-09-08T10:12:08;53.10;1.00
429;DHT22;201;48.758;9.290;2023-09-08T10:14:36;53.70;1.00
429;DHT22;201;48.758;9.290;2023-09-08T10:17:02;54.00;1.00
429;DHT22;201;48.758;9.290;2023-09-08T10:19:28;53.90;1.00
429;DHT22;201;48.758;9.290;2023-09-08T10:22:00;53.80;1.00
429;DHT22;201;48.758;9.290;2023-09-08T10:24:33;53.60;1.00
429;DHT22;201;48.758;9.290;2023-09-08T10:27:09;53.60;1.00
429;DHT22;201;48.758;9.290;2023-09-08T10:29:38;52.90;1.00
429;DHT22;201;48.758;9.290;2023-09-08T10:32:05;52.40;1.00
429;DHT22;201;48.758;9.290;2023-09-08T10:34:33;51.10;1.00
429;DHT22;201;48.758;9.290;2023-09-08T10:36:58;49.50;1.00
429;DHT22;201;48.758;9.290;2023-09-08T10:39:31;46.50;1.00
429;DHT22;201;48.758;9.290;2023-09-08T10:47:13;43.80;1.00
429;DHT22;201;48.758;9.290;2023-09-08T10:49:40;43.70;1.00
429;DHT22;201;48.758;9.290;2023-09-08T10:52:10;43.80;1.00
429;DHT22;201;48.758;9.290;2023-09-08T10:54:48;43.00;1.00
429;DHT22;201;48.758;9.290;2023-09-08T10:57:16;42.30;1.00
429;DHT22;201;48.758;9.290;2023-09-08T10:59:51;41.30;1.00
429;DHT22;201;48.758;9.290;2023-09-08T11:02:49;40.10;1.00
429;DHT22;201;48.758;9.290;2023-09-08T11:05:20;38.90;1.00
429;DHT22;201;48.758;9.290;2023-09-08T11:07:47;37.50;1.00
429;DHT22;201;48.758;9.290;2023-09-08T11:10:14;36.30;1.00
429;DHT22;201;48.758;9.290;2023-09-08T11:12:40;35.20;1.00
429;DHT22;201;48.758;9.290;2023-09-08T11:15:07;33.50;1.00
429;DHT22;201;48.758;9.290;2023-09-08T11:17:35;32.30;1.00
429;DHT22;201;48.758;9.290;2023-09-08T11:20:02;31.30;1.00
429;DHT22;201;48.758;9.290;2023-09-08T11:22:34;31.10;1.00
429;DHT22;201;48.758;9.290;2023-09-08T11:25:01;31.20;1.00
429;DHT22;201;48.758;9.290;2023-09-08T11:27:30;30.70;1.00
429;DHT22;201;48.758;9.290;2023-09-08T11:29:56;30.70;1.00
429;DHT22;201;48.758;9.290;2023-09-08T11:32:23;30.90;1.00
429;DHT22;201;48.758;9.290;2023-09-08T11:34:48;31.00;1.00
429;DHT22;201;48.758;9.290;2023-09-08T11:37:16;31.20;1.00
429;DHT22;201;48.758;9.290;2023-09-08T11:39:46;31.40;1.00
429;DHT22;201;48.758;9.290;2023-09-08T11:42:13;31.60;1.00
429;DHT22;201;48.758;9.290;2023-09-08T11:44:40;31.50;1.00
429;DHT22;201;48.758;9.290;2023-09-08T11:47:10;31.50;1.00
429;DHT22;201;48.758;9.290;2023-09-08T11:49:37;31.40;1.00
429;DHT22;201;48.758;9.290;2023-09-08T11:52:07;31.40;1.00
429;DHT22;201;48.758;9.290;2023-09-08T11:54:34;31.40;1.00
429;DHT22;201;48.758;9.290;2023-09-08T11:57:02;31.50;1.00
429;DHT22;201;48.758;9.290;2023-09-08T11:59:33;31.40;1.00
429;DHT22;201;48.758;9.290;2023-09-08T12:01:59;31.50;1.00
429;DHT22;201;48.758;9.290;2023-09-08T12:04:25;31.40;1.00
429;DHT22;201;48.758;9.290;2023-09-08T12:06:54;31.40;1.00
429;DHT22;201;48.758;9.290;2023-09-08T12:09:23;31.40;1.00
429;DHT22;201;48.758;9.290;2023-09-08T12:11:50;31.30;1.00
429;DHT22;201;48.758;9.290;2023-09-08T12:14:16;31.30;1.00
429;DHT22;201;48.758;9.290;2023-09-08T12:16:42;31.40;1.00
429;DHT22;201;48.758;9.290;2023-09-08T12:19:08;31.40;1.00
429;DHT22;201;48.758;9.290;2023-09-08T12:21:55;31.50;1.00
429;DHT22;201;48.758;9.290;2023-09-08T12:24:47;31.40;1.00
429;DHT22;201;48.758;9.290;2023-09-08T12:27:18;31.10;1.00
429;DHT22;201;48.758;9.290;2023-09-08T12:30:00;31.10;1.00
429;DHT22;201;48.758;9.290;2023-09-08T12:32:29;30.50;1.00
429;DHT22;201;48.758;9.290;2023-09-08T12:34:55;30.40;1.00
429;DHT22;201;48.758;9.290;2023-09-08T12:37:25;30.40;1.00
429;DHT22;201;48.758;9.290;2023-09-08T12:39:54;30.40;1.00
429;DHT22;201;48.758;9.290;2023-09-08T12:42:20;30.30;1.00
429;DHT22;201;48.758;9.290;2023-09-08T12:44:47;30.20;1.00
429;DHT22;201;48.758;9.290;2023-09-08T12:47:12;30.10;1.00
429;DHT22;201;48.758;9.290;2023-09-08T12:49:38;29.60;1.00
429;DHT22;201;48.758;9.290;2023-09-08T12:52:04;29.30;1.00
429;DHT22;201;48.758;9.290;2023-09-08T12:54:30;29.20;1.00
429;DHT22;201;48.758;9.290;2023-09-08T12:56:56;29.20;1.00
429;DHT22;201;48.758;9.290;2023-09-08T12:59:21;29.10;1.00
429;DHT22;201;48.758;9.290;2023-09-08T13:01:47;29.20;1.00
429;DHT22;201;48.758;9.290;2023-09-08T13:04:12;29.10;1.00
429;DHT22;201;48.758;9.290;2023-09-08T13:06:38;29.00;1.00
429;DHT22;201;48.758;9.290;2023-09-08T13:09:03;29.10;1.00
429;DHT22;201;48.758;9.290;2023-09-08T13:11:30;29.40;1.00
429;DHT22;201;48.758;9.290;2023-09-08T13:13:56;29.70;1.00
429;DHT22;201;48.758;9.290;2023-09-08T13:16:21;29.80;1.00
429;DHT22;201;48.758;9.290;2023-09-08T13:18:47;30.00;1.00
429;DHT22;201;48.758;9.290;2023-09-08T13:21:12;29.80;1.00
429;DHT22;201;48.758;9.290;2023-09-08T13:23:38;29.90;1.00
429;DHT22;201;48.758;9.290;2023-09-08T13:26:04;29.90;1.00
429;DHT22;201;48.758;9.290;2023-09-08T13:28:29;29.80;1.00
429;DHT22;201;48.758;9.290;2023-09-08T13:30:55;29.60;1.00
429;DHT22;201;48.758;9.290;2023-09-08T13:33:20;29.60;1.00
429;DHT22;201;48.758;9.290;2023-09-08T13:35:46;29.70;1.00
429;DHT22;201;48.758;9.290;2023-09-08T13:38:11;29.70;1.00
429;DHT22;201;48.758;9.290;2023-09-08T13:40:37;29.90;1.00
429;DHT22;201;48.758;9.290;2023-09-08T13:43:02;29.90;1.00
429;DHT22;201;48.758;9.290;2023-09-08T13:45:28;30.00;1.00
429;DHT22;201;48.758;9.290;2023-09-08T13:47:54;30.00;1.00
429;DHT22;201;48.758;9.290;2023-09-08T13:50:19;29.50;1.00
429;DHT22;201;48.758;9.290;2023-09-08T13:52:45;29.30;1.00
429;DHT22;201;48.758;9.290;2023-09-08T13:55:10;28.90;1.00
429;DHT22;201;48.758;9.290;2023-09-08T13:57:36;28.80;1.00
429;DHT22;201;48.758;9.290;2023-09-08T14:00:03;28.60;1.00
429;DHT22;201;48.758;9.290;2023-09-08T14:02:28;28.80;1.00
429;DHT22;201;48.758;9.290;2023-09-08T14:04:54;28.80;1.00
429;DHT22;201;48.758;9.290;2023-09-08T14:07:20;29.10;1.00
429;DHT22;201;48.758;9.290;2023-09-08T14:09:45;29.30;1.00
429;DHT22;201;48.758;9.290;2023-09-08T14:12:11;29.10;1.00
429;DHT22;201;48.758;9.290;2023-09-08T14:14:36;29.20;1.00
429;DHT22;201;48.758;9.290;2023-09-08T14:17:02;29.20;1.00
429;DHT22;201;48.758;9.290;2023-09-08T14:19:27;29.20;1.00
429;DHT22;201;48.758;9.290;2023-09-08T14:21:53;29.10;1.00
429;DHT22;201;48.758;9.290;2023-09-08T14:24:18;28.80;1.00
429;DHT22;201;48.758;9.290;2023-09-08T14:26:44;28.80;1.00
429;DHT22;201;48.758;9.290;2023-09-08T14:29:10;28.70;1.00
429;DHT22;201;48.758;9.290;2023-09-08T14:31:35;28.90;1.00
429;DHT22;201;48.758;9.290;2023-09-08T14:34:01;29.10;1.00
429;DHT22;201;48.758;9.290;2023-09-08T14:36:26;29.10;1.00
429;DHT22;201;48.758;9.290;2023-09-08T14:38:52;29.30;1.00
429;DHT22;201;48.758;9.290;2023-09-08T14:41:18;29.10;1.00
429;DHT22;201;48.758;9.290;2023-09-08T14:43:46;29.00;1.00
429;DHT22;201;48.758;9.290;2023-09-08T14:46:12;28.90;1.00
429;DHT22;201;48.758;9.290;2023-09-08T14:48:37;29.00;1.00
429;DHT22;201;48.758;9.290;2023-09-08T14:51:03;29.10;1.00
429;DHT22;201;48.758;9.290;2023-09-08T14:53:31;29.00;1.00
429;DHT22;201;48.758;9.290;2023-09-08T14:56:00;29.10;1.00
429;DHT22;201;48.758;9.290;2023-09-08T14:58:26;29.10;1.00
429;DHT22;201;48.758;9.290;2023-09-08T15:00:57;29.10;1.00
429;DHT22;201;48.758;9.290;2023-09-08T15:03:23;29.00;1.00
429;DHT22;201;48.758;9.290;2023-09-08T15:05:48;28.90;1.00
429;DHT22;201;48.758;9.290;2023-09-08T15:08:14;28.70;1.00
429;DHT22;201;48.758;9.290;2023-09-08T15:10:39;28.60;1.00
429;DHT22;201;48.758;9.290;2023-09-08T15:13:05;28.40;1.00
429;DHT22;201;48.758;9.290;2023-09-08T15:15:30;28.30;1.00
429;DHT22;201;48.758;9.290;2023-09-08T15:17:56;28.30;1.00
429;DHT22;201;48.758;9.290;2023-09-08T15:20:22;28.30;1.00
429;DHT22;201;48.758;9.290;2023-09-08T15:22:48;28.30;1.00
429;DHT22;201;48.758;9.290;2023-09-08T15:25:13;28.30;1.00
429;DHT22;201;48.758;9.290;2023-09-08T15:27:39;28.30;1.00
429;DHT22;201;48.758;9.290;2023-09-08T15:30:06;28.40;1.00
429;DHT22;201;48.758;9.290;2023-09-08T15:32:31;28.50;1.00
429;DHT22;201;48.758;9.290;2023-09-08T15:34:57;28.50;1.00
429;DHT22;201;48.758;9.290;2023-09-08T15:37:22;28.40;1.00
429;DHT22;201;48.758;9.290;2023-09-08T15:39:48;28.50;1.00
429;DHT22;201;48.758;9.290;2023-09-08T15:42:13;28.40;1.00
429;DHT22;201;48.758;9.290;2023-09-08T15:44:39;28.40;1.00
429;DHT22;201;48.758;9.290;2023-09-08T15:47:04;28.40;1.00
429;DHT22;201;48.758;9.290;2023-09-08T15:49:30;28.30;1.00
429;DHT22;201;48.758;9.290;2023-09-08T15:51:55;28.30;1.00
429;DHT22;201;48.758;9.290;2023-09-08T15:54:21;28.20;1.00
429;DHT22;201;48.758;9.290;2023-09-08T15:56:47;28.10;1.00
429;DHT22;201;48.758;9.290;2023-09-08T15:59:13;27.90;1.00
429;DHT22;201;48.758;9.290;2023-09-08T16:01:39;27.80;1.00
429;DHT22;201;48.758;9.290;2023-09-08T16:04:05;27.80;1.00
429;DHT22;201;48.758;9.290;2023-09-08T16:06:35;27.70;1.00
429;DHT22;201;48.758;9.290;2023-09-08T16:09:00;27.60;1.00
429;DHT22;201;48.758;9.290;2023-09-08T16:11:26;27.40;1.00
429;DHT22;201;48.758;9.290;2023-09-08T16:13:51;27.30;1.00
429;DHT22;201;48.758;9.290;2023-09-08T16:16:17;27.20;1.00
429;DHT22;201;48.758;9.290;2023-09-08T16:18:42;27.10;1.00
429;DHT22;201;48.758;9.290;2023-09-08T16:21:08;27.10;1.00
429;DHT22;201;48.758;9.290;2023-09-08T16:23:33;27.00;1.00
429;DHT22;201;48.758;9.290;2023-09-08T16:25:59;26.90;1.00
429;DHT22;201;48.758;9.290;2023-09-08T16:28:24;26.90;1.00
429;DHT22;201;48.758;9.290;2023-09-08T16:30:50;26.80;1.00
429;DHT22;201;48.758;9.290;2023-09-08T16:33:15;26.70;1.00
429;DHT22;201;48.758;9.290;2023-09-08T16:35:41;26.60;1.00
429;DHT22;201;48.758;9.290;2023-09-08T16:38:07;26.60;1.00
429;DHT22;201;48.758;9.290;2023-09-08T16:40:33;26.50;1.00
429;DHT22;201;48.758;9.290;2023-09-08T16:42:58;26.50;1.00
429;DHT22;201;48.758;9.290;2023-09-08T16:45:28;26.40;1.00
429;DHT22;201;48.758;9.290;2023-09-08T16:47:54;26.40;1.00
429;DHT22;201;48.758;9.290;2023-09-08T16:50:19;26.30;1.00
429;DHT22;201;48.758;9.290;2023-09-08T16:52:45;26.30;1.00